Flight Track Log - Related Links

Times and Time Zones

All times are in EDT time to prevent confusion due to time zone crossing. See the UAL582 flight status page for this flight to view local times or setup timezone preferences in your user account.

Time Position Orientation Groundspeed Altitude Reporting Facility
EDT Latitude Longitude Course Direction KTS MPH feet Rate Location/Type
Mon 05:41:15 PM 43.7167 -79.5833 277° West 170 196 2,700  Level Toronto Center
Mon 05:42:15 PM 43.7667 -79.5667 14° North 220 253 4,800 2,100 Climbing Toronto Center
Mon 05:43:15 PM 43.8167 -79.6333 316° Northwest 280 322 6,900 1,100 Climbing Toronto Center
Mon 05:44:15 PM 43.8167 -79.7500 270° West 300 345 7,000 1,000 Climbing Toronto Center
Mon 05:45:15 PM 43.8000 -79.8667 259° West 300 345 8,900 1,900 Climbing Toronto Center
Mon 05:46:00 PM 43.7247 -80.3045 277° West  Level FlightAware Approximate
Mon 05:46:15 PM 43.8000 -79.9833 270° West 300 345 10,800  Level Toronto Center
Mon 05:47:15 PM 43.7833 -80.1167 260° West 370 426 13,000 2,300 Climbing Toronto Center
Mon 05:48:15 PM 43.7667 -80.2500 260° West 370 426 15,400 2,400 Climbing Toronto Center
Mon 05:49:15 PM 43.7500 -80.4167 262° West 390 449 17,800 2,250 Climbing Toronto Center
Mon 05:50:15 PM 43.7333 -80.5500 260° West 390 449 19,900 2,050 Climbing Toronto Center
Mon 05:51:15 PM 43.7000 -80.7167 255° West 400 460 21,900 1,650 Climbing Toronto Center
Mon 05:52:15 PM 43.6500 -80.8500 243° Southwest 400 460 23,200 1,400 Climbing Toronto Center
Mon 05:53:15 PM 43.6333 -81.0167 262° West 410 472 24,700 1,450 Climbing Toronto Center
Mon 05:54:15 PM 43.6000 -81.1833 255° West 420 483 26,100 1,200 Climbing Toronto Center
Mon 05:55:15 PM 43.5667 -81.3167 251° West 420 483 27,100 950 Climbing Toronto Center
Mon 05:56:15 PM 43.5333 -81.4667 253° West 430 495 28,000 450 Climbing Toronto Center
Mon 05:57:15 PM 43.5000 -81.6333 255° West 430 495 28,000  Level Toronto Center
Mon 05:58:15 PM 43.4667 -81.8000 255° West 440 506 28,000  Level Toronto Center
Mon 06:00:17 PM 43.3961 -82.1144 253° West 439 505 28,000  Level Cleveland Center
Mon 06:01:15 PM 43.3500 -82.2667 247° West 440 506 28,000  Level Toronto Center
Mon 06:02:15 PM 43.3167 -82.4500 256° West 440 506 28,000  Level Toronto Center
Mon 06:03:15 PM 43.2833 -82.6167 255° West 450 518 28,000  Level Toronto Center
Mon 06:04:17 PM 43.2442 -82.7606 250° West 439 505 28,000  Level Cleveland Center
Mon 06:05:17 PM 43.1992 -82.9214 249° West 439 505 28,000  Level Cleveland Center
Mon 06:06:17 PM 43.1544 -83.0761 248° West 444 511 28,000  Level Cleveland Center
Mon 06:07:17 PM 43.1114 -83.2336 250° West 444 511 28,000  Level Cleveland Center
Mon 06:08:17 PM 43.0633 -83.4078 249° West 444 511 28,000  Level Cleveland Center
Mon 06:09:17 PM 43.0178 -83.5647 248° West 444 511 28,000  Level Cleveland Center
Mon 06:10:17 PM 42.9758 -83.7247 250° West 444 511 28,000  Level Cleveland Center
Mon 06:11:17 PM 42.9506 -83.8908 258° West 444 511 28,000  Level Cleveland Center
Mon 06:12:17 PM 42.9353 -84.0572 263° West 449 517 28,000  Level Cleveland Center
Mon 06:12:48 PM 42.9281 -84.1336 263° West 445 512 28,000  Level Chicago Center
Mon 06:13:50 PM 42.9117 -84.2994 262° West 443 510 28,000  Level Chicago Center
Mon 06:14:52 PM 42.8956 -84.4678 263° West 447 514 28,000  Level Chicago Center
Mon 06:15:54 PM 42.8783 -84.6356 262° West 447 514 28,000  Level Chicago Center
Mon 06:16:57 PM 42.8583 -84.8325 262° West 439 505 28,000  Level Chicago Center
Mon 06:17:59 PM 42.8403 -84.9992 262° West 444 511 28,000  Level Chicago Center
Mon 06:19:01 PM 42.8233 -85.1636 262° West 441 507 28,000  Level Chicago Center
Mon 06:20:03 PM 42.8053 -85.3258 261° West 434 499 28,000  Level Chicago Center
Mon 06:21:05 PM 42.7875 -85.4872 262° West 432 497 28,000 -97 Level Chicago Center
Mon 06:22:07 PM 42.7597 -85.6467 257° West 430 495 27,800 -1,065 Descending Chicago Center
Mon 06:23:09 PM 42.7306 -85.8039 256° West 427 491 25,800 -2,032 Descending Chicago Center
Mon 06:24:11 PM 42.7031 -85.9589 256° West 420 483 23,600 -2,323 Descending Chicago Center
Mon 06:25:13 PM 42.6694 -86.1411 256° West 413 475 21,000 -1,742 Descending Chicago Center
Mon 06:26:15 PM 42.6414 -86.2939 256° West 413 475 20,000 -823 Descending Chicago Center
Mon 06:27:17 PM 42.6122 -86.4458 255° West 415 478 19,300 -1,210 Descending Chicago Center
Mon 06:28:19 PM 42.5831 -86.5961 255° West 413 475 17,500 -1,742 Descending Chicago Center
Mon 06:29:21 PM 42.5575 -86.7406 257° West 397 457 15,700 -1,742 Descending Chicago Center
Mon 06:30:23 PM 42.5186 -86.8797 249° West 395 455 13,900 -1,824 Descending Chicago Center
Mon 06:31:26 PM 42.4736 -87.0433 250° West 384 442 11,900 -1,728 Descending Chicago Center
Mon 06:32:28 PM 42.4361 -87.1767 249° West 380 437 10,300 -919 Descending Chicago Center
Mon 06:33:30 PM 42.4011 -87.3078 250° West 374 430 10,000 -145 Descending Chicago Center
Mon 06:34:32 PM 42.3617 -87.4483 249° West 371 427 10,000  Level Chicago Center
Mon 06:35:34 PM 42.3111 -87.5653 240° Southwest 376 433 10,000  Level Chicago Center
Mon 06:36:36 PM 42.2294 -87.6475 217° Southwest 368 423 10,000 -242 Level Chicago Center
Mon 06:37:38 PM 42.1592 -87.7233 219° Southwest 327 376 9,500 -1,210 Descending Chicago Center
Mon 06:38:40 PM 42.1069 -87.8386 239° Southwest 309 356 7,500 -1,596 Descending Chicago Center
Mon 06:39:12 PM 42.0833 -87.9000 243° Southwest 308 354 7,000 -349 Descending Chicago TRACON
Mon 06:40:06 PM 42.0667 -88.0000 257° West 288 331 7,000 -450 Level Chicago TRACON
Mon 06:41:12 PM 42.0667 -88.1000 270° West 256 295 6,100 -840 Descending Chicago TRACON
Mon 06:41:46 PM 42.0619 -88.1386 261° West 258 297 5,600 -938 Descending Chicago Center
Mon 06:42:48 PM 42.0553 -88.2344 265° West 258 297 4,600 -768 Descending Chicago Center
Mon 06:43:51 PM 42.0258 -88.3175 245° Southwest 239 275 4,000 -288 Descending Chicago Center
Mon 06:44:53 PM 41.9789 -88.2897 156° South 195 224 4,000  Level Chicago Center
Mon 06:45:55 PM 41.9678 -88.2294 104° East 179 206 4,000  Level Chicago Center
Mon 06:46:57 PM 41.9675 -88.1703 90° East 165 190 4,000 -387 Level Chicago Center
Mon 06:47:59 PM 41.9686 -88.1131 88° East 158 182 3,200 -774 Descending Chicago Center

Login

Don't have an account? Register now (free) for customized features, flight alerts, and more!